Time;durP1;ratioP1;P1;durP2;ratioP2;P2;SDS_P1;SDS_P2;PMS_P1;PMS_P2;Temp;Humidity;BMP_temperature;BMP_pressure;BME280_temperature;BME280_humidity;BME280_pressure;Samples;Min_cycle;Max_cycle;Signal;HPM_P1;HPM_P2
2022/07/18 00:00:13;;;;;;;5.87;1.90;;;18.90;99.90;;;;;;5059476;28;20574;-76
2022/07/18 00:02:45;;;;;;;2.03;1.70;;;18.90;99.90;;;;;;5056634;28;20479;-75
2022/07/18 00:05:12;;;;;;;2.97;1.67;;;18.80;99.90;;;;;;5053240;28;20580;-75
2022/07/18 00:07:42;;;;;;;9.33;3.10;;;18.80;99.90;;;;;;5058304;28;20798;-78
2022/07/18 00:10:09;;;;;;;2.23;1.80;;;18.70;99.90;;;;;;5057832;28;20486;-75
2022/07/18 00:12:39;;;;;;;4.50;2.23;;;18.70;99.90;;;;;;5057474;28;20464;-75
2022/07/18 00:15:12;;;;;;;2.73;1.37;;;18.70;99.90;;;;;;5058530;28;20482;-74
2022/07/18 00:17:39;;;;;;;14.07;2.27;;;18.60;99.90;;;;;;5059506;28;20952;-75
2022/07/18 00:20:11;;;;;;;2.00;1.77;;;18.50;99.90;;;;;;5060413;28;20558;-76
2022/07/18 00:22:38;;;;;;;3.83;1.97;;;18.30;99.90;;;;;;5063513;28;20488;-75
2022/07/18 00:25:06;;;;;;;3.00;1.73;;;18.30;99.90;;;;;;5058541;28;21015;-76
2022/07/18 00:27:35;;;;;;;3.37;1.73;;;18.10;99.90;;;;;;5056098;28;20875;-75
2022/07/18 00:30:05;;;;;;;2.17;1.97;;;18.10;99.90;;;;;;5062210;28;20564;-76
2022/07/18 00:32:34;;;;;;;1.87;1.27;;;18.00;99.90;;;;;;5060057;28;21201;-74
2022/07/18 00:35:02;;;;;;;2.40;1.70;;;17.90;99.90;;;;;;5065698;28;20490;-76
2022/07/18 00:37:29;;;;;;;8.50;3.33;;;17.90;99.90;;;;;;5061044;28;20481;-76
2022/07/18 00:39:56;;;;;;;1.83;1.63;;;17.90;99.90;;;;;;5061412;28;20533;-76
2022/07/18 00:42:23;;;;;;;3.13;1.93;;;18.00;99.90;;;;;;5049026;28;20463;-76
2022/07/18 00:45:00;;;;;;;5.77;1.77;;;17.90;99.90;;;;;;5070375;28;20544;-76
2022/07/18 00:47:27;;;;;;;2.80;1.60;;;17.90;99.90;;;;;;5064127;28;20458;-76
2022/07/18 00:49:56;;;;;;;4.03;2.10;;;18.00;99.90;;;;;;5062995;28;20633;-76
2022/07/18 00:52:25;;;;;;;3.40;1.70;;;18.00;99.90;;;;;;5062487;28;20462;-75
2022/07/18 00:54:55;;;;;;;3.20;2.13;;;17.80;99.90;;;;;;5058174;28;20483;-76
2022/07/18 00:57:22;;;;;;;3.37;2.00;;;17.70;99.90;;;;;;5065224;28;20474;-76
2022/07/18 01:02:40;;;;;;;6.20;2.07;;;17.50;99.90;;;;;;5066378;28;20470;-76
2022/07/18 01:05:10;;;;;;;4.80;2.33;;;17.50;99.90;;;;;;5063182;28;20550;-76
2022/07/18 01:07:40;;;;;;;3.50;2.43;;;17.50;99.90;;;;;;5061325;28;20452;-75
2022/07/18 01:10:09;;;;;;;2.83;1.93;;;17.60;99.90;;;;;;5056834;28;22533;-76
2022/07/18 01:12:42;;;;;;;4.53;2.40;;;17.60;99.90;;;;;;5062363;28;20503;-75
2022/07/18 01:15:09;;;;;;;2.73;1.60;;;17.60;99.90;;;;;;5063641;28;20469;-75
2022/07/18 01:17:36;;;;;;;6.53;2.60;;;17.70;99.90;;;;;;5060766;28;20477;-76
2022/07/18 01:20:17;;;;;;;6.57;1.90;;;17.60;99.90;;;;;;5069937;28;20552;-76
2022/07/18 01:22:48;;;;;;;4.10;2.03;;;17.40;99.90;;;;;;5070628;28;20458;-76
2022/07/18 01:25:17;;;;;;;2.40;1.80;;;17.20;99.90;;;;;;5061902;28;20551;-76
2022/07/18 01:27:46;;;;;;;2.90;1.63;;;17.20;99.90;;;;;;5062201;28;20550;-76
2022/07/18 01:30:17;;;;;;;4.43;2.23;;;17.20;99.90;;;;;;5056763;28;20439;-76
2022/07/18 01:32:57;;;;;;;4.00;1.97;;;17.20;99.90;;;;;;5062289;28;20460;-75
2022/07/18 01:35:24;;;;;;;5.10;1.90;;;17.10;99.90;;;;;;5067933;28;20784;-75
2022/07/18 01:37:57;;;;;;;1.97;1.50;;;17.10;99.90;;;;;;5063089;28;20483;-75
2022/07/18 01:40:25;;;;;;;2.73;2.03;;;17.00;99.90;;;;;;5064891;28;20749;-76
2022/07/18 01:42:56;;;;;;;1.90;1.80;;;17.00;99.90;;;;;;5072555;28;20450;-75
2022/07/18 01:45:24;;;;;;;3.10;1.80;;;16.90;99.90;;;;;;5062307;28;20569;-76
2022/07/18 01:47:51;;;;;;;2.37;1.97;;;16.80;99.90;;;;;;5076999;28;20451;-75
2022/07/18 01:50:19;;;;;;;2.83;2.13;;;16.60;99.90;;;;;;5065632;28;20475;-76
2022/07/18 01:52:45;;;;;;;2.40;2.20;;;16.50;99.90;;;;;;5073019;28;20606;-75
2022/07/18 01:55:14;;;;;;;2.67;2.10;;;16.40;99.90;;;;;;5074574;28;20560;-76
2022/07/18 01:57:41;;;;;;;5.50;2.33;;;16.50;99.90;;;;;;5067253;28;20480;-76
2022/07/18 02:00:10;;;;;;;2.17;1.70;;;16.50;99.90;;;;;;5076301;28;20458;-75
2022/07/18 02:02:38;;;;;;;3.20;1.90;;;16.60;99.90;;;;;;5067124;28;20834;-76
2022/07/18 02:05:08;;;;;;;4.67;2.00;;;16.60;99.90;;;;;;5076091;28;20975;-76
2022/07/18 02:07:41;;;;;;;2.87;2.67;;;16.70;99.90;;;;;;5074472;28;20922;-75
2022/07/18 02:10:10;;;;;;;2.77;2.10;;;16.70;99.90;;;;;;5068881;28;20971;-75
2022/07/18 02:12:39;;;;;;;5.40;2.30;;;16.60;99.90;;;;;;5072789;28;20454;-76
2022/07/18 02:15:07;;;;;;;5.33;2.10;;;16.50;99.90;;;;;;5063754;28;20487;-74
2022/07/18 02:17:35;;;;;;;3.73;1.73;;;16.50;99.90;;;;;;5064323;28;20479;-75
2022/07/18 02:20:02;;;;;;;3.50;1.80;;;16.60;99.90;;;;;;5060099;28;20450;-76
2022/07/18 02:22:29;;;;;;;5.77;2.27;;;16.50;99.90;;;;;;5077093;28;20458;-76
2022/07/18 02:24:55;;;;;;;3.33;2.27;;;16.50;99.90;;;;;;5076406;28;20496;-75
2022/07/18 02:27:23;;;;;;;2.63;2.07;;;16.50;99.90;;;;;;5059341;28;20455;-75
2022/07/18 02:29:52;;;;;;;3.50;2.10;;;16.40;99.90;;;;;;5076069;28;21064;-76
2022/07/18 02:32:19;;;;;;;2.80;2.13;;;16.40;99.90;;;;;;5074353;28;20455;-76
2022/07/18 02:34:46;;;;;;;5.03;2.13;;;16.50;99.90;;;;;;5069410;28;20481;-75
2022/07/18 02:37:13;;;;;;;4.27;2.10;;;16.40;99.90;;;;;;5071619;28;20807;-75
2022/07/18 02:39:40;;;;;;;5.93;2.50;;;16.40;99.90;;;;;;5076877;28;20482;-75
2022/07/18 02:42:08;;;;;;;3.43;1.90;;;16.50;99.90;;;;;;5059992;28;20551;-75
2022/07/18 02:44:35;;;;;;;3.10;1.80;;;16.60;99.90;;;;;;5080684;28;20457;-75
2022/07/18 02:47:03;;;;;;;4.00;2.63;;;16.50;99.90;;;;;;5079583;28;20542;-76
2022/07/18 02:49:31;;;;;;;4.57;2.60;;;16.40;99.90;;;;;;5069810;28;20465;-75
2022/07/18 02:52:01;;;;;;;4.43;2.20;;;16.40;99.90;;;;;;5068176;28;20916;-76
2022/07/18 02:54:29;;;;;;;3.10;2.10;;;16.40;99.90;;;;;;5071846;28;21119;-75
2022/07/18 02:56:56;;;;;;;2.80;1.90;;;16.50;99.90;;;;;;5072092;28;20429;-76
2022/07/18 02:59:23;;;;;;;3.57;2.37;;;16.50;99.90;;;;;;5069613;28;20485;-76
2022/07/18 03:01:50;;;;;;;2.93;2.40;;;16.50;99.90;;;;;;5077889;28;20454;-75
2022/07/18 03:04:19;;;;;;;6.00;2.43;;;16.50;99.90;;;;;;5076872;28;20481;-75
2022/07/18 03:06:47;;;;;;;3.20;1.87;;;16.40;99.90;;;;;;5072974;28;20780;-75
2022/07/18 03:09:14;;;;;;;2.20;1.90;;;16.40;99.90;;;;;;5073087;28;21006;-75
2022/07/18 03:11:41;;;;;;;4.23;2.13;;;16.40;99.90;;;;;;5075354;28;20459;-76
2022/07/18 03:14:08;;;;;;;3.93;2.10;;;16.50;99.90;;;;;;5078836;28;20473;-76
2022/07/18 03:16:35;;;;;;;5.90;1.90;;;16.40;99.90;;;;;;5075329;28;21795;-75
2022/07/18 03:19:02;;;;;;;2.17;1.53;;;16.40;99.90;;;;;;5078946;28;20485;-75
2022/07/18 03:21:30;;;;;;;2.30;2.10;;;16.40;99.90;;;;;;5080993;28;20469;-75
2022/07/18 03:23:57;;;;;;;3.43;2.17;;;16.30;99.90;;;;;;5081248;28;20605;-75
2022/07/18 03:26:24;;;;;;;3.33;2.13;;;16.40;99.90;;;;;;5078677;28;20516;-76
2022/07/18 03:28:51;;;;;;;5.40;2.13;;;16.20;99.90;;;;;;5071813;28;20544;-75
2022/07/18 03:31:18;;;;;;;4.10;2.87;;;16.20;99.90;;;;;;5072786;28;20463;-76
2022/07/18 03:33:45;;;;;;;2.77;2.10;;;16.20;99.90;;;;;;5080540;28;20504;-76
2022/07/18 03:36:12;;;;;;;2.23;2.00;;;16.10;99.90;;;;;;5074536;28;20620;-75
2022/07/18 03:38:42;;;;;;;2.27;1.60;;;16.00;99.90;;;;;;5079003;28;20575;-75
2022/07/18 03:41:10;;;;;;;4.47;2.10;;;16.00;99.90;;;;;;5077287;28;20475;-75
2022/07/18 03:43:37;;;;;;;3.07;1.87;;;16.00;99.90;;;;;;5080940;28;20497;-74
2022/07/18 03:46:03;;;;;;;2.47;1.70;;;15.90;99.90;;;;;;5129197;22;20472;-72
2022/07/18 03:48:30;;;;;;;2.80;1.90;;;15.90;99.90;;;;;;5080026;28;20450;-71
2022/07/18 03:50:58;;;;;;;3.73;2.70;;;16.00;99.90;;;;;;5078369;28;20454;-71
2022/07/18 03:53:26;;;;;;;3.73;1.77;;;16.00;99.90;;;;;;5081881;28;20561;-71
2022/07/18 03:55:54;;;;;;;3.67;3.37;;;16.00;99.90;;;;;;5081899;28;20480;-71
2022/07/18 03:58:21;;;;;;;2.93;1.83;;;15.90;99.90;;;;;;5082148;28;20982;-71
2022/07/18 04:00:48;;;;;;;3.00;2.00;;;15.90;99.90;;;;;;5082141;28;20535;-71
2022/07/18 04:03:15;;;;;;;5.53;2.30;;;15.90;99.90;;;;;;5074099;28;21060;-71
2022/07/18 04:05:42;;;;;;;5.20;3.20;;;15.90;99.90;;;;;;5071993;28;20799;-72
2022/07/18 04:08:08;;;;;;;5.40;2.20;;;15.90;99.90;;;;;;5093037;28;20452;-72
2022/07/18 04:10:39;;;;;;;5.13;2.07;;;15.80;99.90;;;;;;5085869;28;20958;-72
2022/07/18 04:13:08;;;;;;;2.90;1.87;;;15.70;99.90;;;;;;5085702;28;20450;-72
2022/07/18 04:15:36;;;;;;;2.10;1.90;;;15.70;99.90;;;;;;5086114;28;20511;-72
2022/07/18 04:18:04;;;;;;;2.43;2.20;;;15.70;99.90;;;;;;5078161;28;20457;-72
2022/07/18 04:20:31;;;;;;;3.53;2.30;;;15.60;99.90;;;;;;5080051;28;20545;-71
2022/07/18 04:23:00;;;;;;;1.70;1.30;;;15.70;99.90;;;;;;5079319;28;20838;-71
2022/07/18 04:25:30;;;;;;;4.00;2.27;;;15.70;99.90;;;;;;5081165;28;20539;-71
2022/07/18 04:27:57;;;;;;;7.30;2.60;;;15.80;99.90;;;;;;5077701;28;20541;-72
2022/07/18 04:30:27;;;;;;;4.90;2.23;;;15.90;99.90;;;;;;5090062;28;20835;-72
2022/07/18 04:32:54;;;;;;;6.87;2.20;;;15.90;99.90;;;;;;5086573;28;20495;-72
2022/07/18 04:35:22;;;;;;;2.33;2.00;;;15.90;99.90;;;;;;5088758;28;20488;-72
2022/07/18 04:37:49;;;;;;;3.10;1.77;;;16.10;99.90;;;;;;5090732;28;20514;-72
2022/07/18 04:40:16;;;;;;;6.13;2.13;;;16.20;99.90;;;;;;5086205;28;20465;-71
2022/07/18 04:42:43;;;;;;;7.87;2.10;;;16.20;99.90;;;;;;5095851;28;20455;-71
2022/07/18 04:45:11;;;;;;;6.30;2.20;;;16.30;99.90;;;;;;5093231;28;20465;-72
2022/07/18 04:47:40;;;;;;;4.70;2.60;;;16.40;99.90;;;;;;5089278;28;20454;-72
2022/07/18 04:50:07;;;;;;;3.60;2.17;;;16.50;99.90;;;;;;5090955;28;20581;-72
2022/07/18 04:52:38;;;;;;;4.03;1.87;;;16.60;99.90;;;;;;5093636;28;20846;-72
2022/07/18 04:55:07;;;;;;;7.67;2.83;;;16.60;99.90;;;;;;5090295;28;20543;-72
2022/07/18 04:57:34;;;;;;;5.23;2.13;;;16.70;99.90;;;;;;5093141;28;20442;-72
2022/07/18 05:00:01;;;;;;;19.00;2.70;;;16.70;99.90;;;;;;5088208;28;20446;-72
2022/07/18 05:02:28;;;;;;;3.00;2.13;;;16.90;99.90;;;;;;5088680;28;20965;-71
2022/07/18 05:04:56;;;;;;;5.00;2.20;;;16.90;99.90;;;;;;5082978;28;20481;-72
2022/07/18 05:07:23;;;;;;;6.40;2.80;;;17.10;99.90;;;;;;5087631;28;20429;-72
2022/07/18 05:09:50;;;;;;;11.43;2.37;;;17.10;99.90;;;;;;5089149;28;20485;-72
2022/07/18 05:12:18;;;;;;;3.30;2.43;;;17.40;99.90;;;;;;5090072;28;20454;-72
2022/07/18 05:14:45;;;;;;;4.47;2.30;;;17.60;99.90;;;;;;5087767;28;20788;-72
2022/07/18 05:17:11;;;;;;;4.37;1.83;;;18.00;99.90;;;;;;5087221;28;20453;-72
2022/07/18 05:19:38;;;;;;;5.77;2.77;;;18.40;99.90;;;;;;5088132;28;20434;-72
2022/07/18 05:22:06;;;;;;;3.73;2.83;;;18.60;99.90;;;;;;5089016;28;20454;-72
2022/07/18 05:24:33;;;;;;;5.63;2.67;;;18.70;99.90;;;;;;5089605;28;20809;-71
2022/07/18 05:27:00;;;;;;;6.40;3.10;;;18.90;99.90;;;;;;5091426;28;20858;-72
2022/07/18 05:29:27;;;;;;;4.40;2.70;;;19.00;99.90;;;;;;5082457;28;20791;-72
2022/07/18 05:31:54;;;;;;;6.10;2.63;;;19.20;99.90;;;;;;5085273;28;20456;-72
2022/07/18 05:34:21;;;;;;;4.93;2.60;;;19.30;99.90;;;;;;5090677;28;20813;-72
2022/07/18 05:36:47;;;;;;;4.50;2.50;;;19.40;99.90;;;;;;5088239;28;20501;-72
2022/07/18 05:39:16;;;;;;;8.20;2.70;;;19.50;99.90;;;;;;5083057;28;20827;-73
2022/07/18 05:41:42;;;;;;;7.10;2.90;;;19.70;99.90;;;;;;5088524;28;20438;-73
2022/07/18 05:44:09;;;;;;;6.00;3.70;;;19.60;99.90;;;;;;5086879;28;20455;-72
2022/07/18 05:46:36;;;;;;;7.00;2.97;;;19.80;99.90;;;;;;5088838;28;20853;-72
2022/07/18 05:49:03;;;;;;;5.40;2.70;;;20.30;99.90;;;;;;5083630;28;20484;-73
2022/07/18 05:51:30;;;;;;;6.17;2.73;;;20.20;99.90;;;;;;5089693;28;20484;-73
2022/07/18 05:53:57;;;;;;;3.40;2.10;;;20.30;99.90;;;;;;5084804;28;20527;-73
2022/07/18 05:56:25;;;;;;;4.17;2.70;;;20.60;99.90;;;;;;5080052;28;21143;-73
2022/07/18 05:58:52;;;;;;;4.07;2.27;;;20.60;99.90;;;;;;5088802;28;20577;-73
2022/07/18 06:01:19;;;;;;;5.47;3.33;;;20.90;99.90;;;;;;5085056;28;20443;-73
2022/07/18 06:03:47;;;;;;;5.00;2.80;;;21.40;99.90;;;;;;5091683;28;20510;-72
2022/07/18 06:06:14;;;;;;;6.63;2.80;;;21.90;99.90;;;;;;5084922;28;20492;-72
2022/07/18 06:08:41;;;;;;;10.40;3.43;;;22.10;99.90;;;;;;5081559;28;20844;-72
2022/07/18 06:11:08;;;;;;;7.70;3.17;;;22.10;99.90;;;;;;5085612;28;20529;-72
2022/07/18 06:13:38;;;;;;;4.90;3.23;;;22.50;99.90;;;;;;5081485;28;20581;-72
2022/07/18 06:16:06;;;;;;;6.50;3.70;;;22.80;99.90;;;;;;5085600;28;20568;-71
2022/07/18 06:18:34;;;;;;;3.80;2.67;;;23.00;99.90;;;;;;5085891;28;20447;-72
2022/07/18 06:21:01;;;;;;;3.17;2.30;;;23.40;99.90;;;;;;5078501;28;20499;-72
2022/07/18 06:23:28;;;;;;;7.60;2.90;;;24.10;99.90;;;;;;5084924;28;20466;-72
2022/07/18 06:25:55;;;;;;;4.00;2.90;;;24.00;99.90;;;;;;5087461;28;20471;-72
2022/07/18 06:28:22;;;;;;;7.23;2.20;;;24.70;99.90;;;;;;5084940;28;20808;-72
2022/07/18 06:30:50;;;;;;;2.77;2.00;;;25.10;99.90;;;;;;5084944;28;20489;-72
2022/07/18 06:33:17;;;;;;;6.00;2.93;;;25.30;99.90;;;;;;5085538;28;20965;-72
2022/07/18 06:35:44;;;;;;;6.40;2.50;;;25.60;99.90;;;;;;5087378;28;20469;-72
2022/07/18 06:38:11;;;;;;;5.87;2.63;;;25.30;99.90;;;;;;5085333;28;20499;-72
2022/07/18 06:40:38;;;;;;;6.30;2.97;;;25.40;99.90;;;;;;5086116;28;20472;-72
2022/07/18 06:43:06;;;;;;;4.17;2.33;;;25.50;99.90;;;;;;5085214;28;20457;-72
2022/07/18 06:45:32;;;;;;;1.80;1.60;;;26.00;99.90;;;;;;5086051;28;20496;-72
2022/07/18 06:48:01;;;;;;;3.97;2.50;;;26.40;98.00;;;;;;5085182;28;20466;-72
2022/07/18 06:50:28;;;;;;;3.90;1.93;;;26.60;97.90;;;;;;5087563;28;20474;-72
2022/07/18 06:52:54;;;;;;;8.13;2.10;;;27.00;97.10;;;;;;5088867;28;20464;-72
2022/07/18 06:55:21;;;;;;;6.33;1.67;;;27.30;95.70;;;;;;5091718;28;20466;-73
2022/07/18 06:57:48;;;;;;;3.20;1.87;;;27.30;93.20;;;;;;5082889;28;20454;-73
2022/07/18 07:00:16;;;;;;;5.07;2.60;;;27.50;93.20;;;;;;5090231;28;20438;-73
2022/07/18 07:02:44;;;;;;;6.43;2.30;;;27.60;91.90;;;;;;5086904;28;20476;-73
2022/07/18 07:05:12;;;;;;;4.27;2.10;;;27.70;91.50;;;;;;5085891;28;20488;-73
2022/07/18 07:07:39;;;;;;;8.30;2.60;;;27.90;90.40;;;;;;5075919;28;20455;-73
2022/07/18 07:10:07;;;;;;;6.33;3.10;;;27.90;90.00;;;;;;5088645;28;20874;-73
2022/07/18 07:12:39;;;;;;;5.47;2.50;;;28.40;89.80;;;;;;5082450;28;20508;-73
2022/07/18 07:15:08;;;;;;;1.97;1.70;;;28.60;89.20;;;;;;5083534;28;20454;-73
2022/07/18 07:17:35;;;;;;;5.40;2.20;;;28.80;86.10;;;;;;5084747;28;21018;-73
2022/07/18 07:20:03;;;;;;;3.07;2.00;;;28.90;88.00;;;;;;5080873;28;20528;-73
2022/07/18 07:22:31;;;;;;;4.33;1.67;;;28.90;87.10;;;;;;5086383;28;20467;-73
2022/07/18 07:24:57;;;;;;;7.60;2.20;;;28.70;85.50;;;;;;5083643;28;20966;-73
2022/07/18 07:27:24;;;;;;;1.60;1.30;;;29.00;87.90;;;;;;5081919;28;20442;-72
2022/07/18 07:29:51;;;;;;;5.90;2.20;;;29.20;83.80;;;;;;5079744;28;20480;-73
2022/07/18 07:32:18;;;;;;;3.20;2.10;;;29.30;84.20;;;;;;5086219;28;20458;-73
2022/07/18 07:34:45;;;;;;;5.93;4.17;;;29.10;86.30;;;;;;5094458;28;20453;-73
2022/07/18 07:37:12;;;;;;;5.33;1.93;;;29.60;83.40;;;;;;5089659;28;20500;-73
2022/07/18 07:39:40;;;;;;;3.80;2.07;;;30.10;85.30;;;;;;5085926;28;20820;-73
2022/07/18 07:42:07;;;;;;;4.23;1.70;;;30.50;81.80;;;;;;5086189;28;20454;-73
2022/07/18 07:44:34;;;;;;;5.13;1.83;;;30.70;79.20;;;;;;5090253;28;20921;-73
2022/07/18 07:47:00;;;;;;;6.80;1.70;;;31.40;75.00;;;;;;5091620;28;20481;-73
2022/07/18 07:49:28;;;;;;;3.23;2.13;;;31.50;75.40;;;;;;5093462;28;20479;-73
2022/07/18 07:51:55;;;;;;;4.53;2.00;;;31.10;74.10;;;;;;5089379;28;20534;-73
2022/07/18 07:54:21;;;;;;;1.70;1.50;;;31.90;73.90;;;;;;5092899;28;20450;-73
2022/07/18 07:56:49;;;;;;;9.53;2.30;;;32.20;71.30;;;;;;5091777;28;21135;-73
2022/07/18 07:59:17;;;;;;;3.87;1.77;;;32.30;67.60;;;;;;5090079;28;20454;-73
2022/07/18 08:01:44;;;;;;;3.37;3.03;;;32.70;65.20;;;;;;5090152;28;20450;-73
2022/07/18 08:04:11;;;;;;;10.13;2.00;;;33.00;64.70;;;;;;5091859;28;20540;-73
2022/07/18 08:06:38;;;;;;;12.73;2.70;;;32.90;62.80;;;;;;5088087;28;20907;-73
2022/07/18 08:09:06;;;;;;;4.53;2.07;;;32.20;63.80;;;;;;5090971;28;20485;-73
2022/07/18 08:11:33;;;;;;;6.20;1.83;;;32.70;62.70;;;;;;5076874;28;20568;-73
2022/07/18 08:14:01;;;;;;;3.80;1.50;;;33.10;62.20;;;;;;5089375;28;20531;-73
2022/07/18 08:16:28;;;;;;;31.73;2.90;;;33.30;59.80;;;;;;5088483;28;21056;-73
2022/07/18 08:18:55;;;;;;;4.13;1.77;;;33.80;59.70;;;;;;5092273;28;20433;-73
2022/07/18 08:21:22;;;;;;;13.63;2.83;;;34.10;58.60;;;;;;5088547;28;20438;-73
2022/07/18 08:23:48;;;;;;;5.27;1.77;;;34.80;58.30;;;;;;5091050;28;20462;-74
2022/07/18 08:26:15;;;;;;;2.50;2.07;;;35.00;55.90;;;;;;5090157;28;20479;-74
2022/07/18 08:28:42;;;;;;;3.87;1.50;;;34.50;57.90;;;;;;5092263;28;20555;-73
2022/07/18 08:31:11;;;;;;;3.77;1.20;;;35.30;54.10;;;;;;5089672;28;20482;-75
2022/07/18 08:33:38;;;;;;;1.50;1.10;;;35.90;54.40;;;;;;5093981;28;20469;-74
2022/07/18 08:36:05;;;;;;;10.30;1.50;;;35.60;54.20;;;;;;5089701;28;20454;-73
2022/07/18 08:38:32;;;;;;;2.93;1.50;;;35.90;52.60;;;;;;5089322;28;20451;-74
2022/07/18 08:41:00;;;;;;;6.63;2.50;;;35.40;52.30;;;;;;5089180;28;20935;-73
2022/07/18 08:43:27;;;;;;;2.63;1.30;;;35.60;52.80;;;;;;5079294;28;20535;-73
2022/07/18 08:45:57;;;;;;;4.70;1.57;;;36.10;50.70;;;;;;5091600;28;20839;-73
2022/07/18 08:48:25;;;;;;;3.30;1.97;;;36.60;51.30;;;;;;5089657;28;20804;-74
2022/07/18 08:50:52;;;;;;;4.40;1.90;;;37.00;47.60;;;;;;5082869;28;20475;-73
2022/07/18 08:53:20;;;;;;;4.70;1.37;;;36.30;47.20;;;;;;5085825;28;20807;-74
2022/07/18 08:55:48;;;;;;;2.47;1.67;;;36.30;46.60;;;;;;5089436;28;20828;-73
2022/07/18 08:58:17;;;;;;;1.70;1.20;;;36.30;46.70;;;;;;5084277;28;20490;-73
2022/07/18 09:00:45;;;;;;;5.40;2.00;;;35.60;46.60;;;;;;5091338;28;21084;-73
2022/07/18 09:03:12;;;;;;;3.83;1.60;;;36.30;46.40;;;;;;5092257;28;20438;-74
2022/07/18 09:05:41;;;;;;;2.40;1.60;;;36.30;46.60;;;;;;5086857;28;20474;-74
2022/07/18 09:08:13;;;;;;;2.57;1.30;;;35.90;45.70;;;;;;5089853;28;20449;-74
2022/07/18 09:10:50;;;;;;;3.87;1.50;;;36.50;46.10;;;;;;5083653;28;20478;-74
2022/07/18 09:13:18;;;;;;;4.30;1.63;;;36.90;45.60;;;;;;5093427;28;20449;-73
2022/07/18 09:16:00;;;;;;;3.40;1.40;;;37.30;44.40;;;;;;5087647;28;20488;-74
2022/07/18 09:18:31;;;;;;;2.27;1.77;;;37.40;43.80;;;;;;5091649;28;20800;-74
2022/07/18 09:21:01;;;;;;;1.97;1.47;;;37.80;43.50;;;;;;5086219;28;20445;-73
2022/07/18 09:23:29;;;;;;;1.57;1.23;;;37.50;42.30;;;;;;5074878;28;20469;-72
2022/07/18 09:25:56;;;;;;;2.00;1.80;;;37.60;42.30;;;;;;5084514;28;20477;-74
2022/07/18 09:28:23;;;;;;;3.83;1.70;;;37.60;43.80;;;;;;5086288;28;20456;-74
2022/07/18 09:30:50;;;;;;;4.97;1.63;;;37.30;41.90;;;;;;5084789;28;20834;-74
2022/07/18 09:33:20;;;;;;;2.80;1.60;;;37.20;43.00;;;;;;5086714;28;20462;-74
2022/07/18 09:35:49;;;;;;;2.77;1.30;;;37.90;41.10;;;;;;5088449;28;20476;-74
2022/07/18 09:38:20;;;;;;;2.17;1.93;;;38.30;40.50;;;;;;5087237;28;20523;-74
2022/07/18 09:40:49;;;;;;;1.70;1.40;;;37.50;41.40;;;;;;5088060;28;20442;-74
2022/07/18 09:43:17;;;;;;;1.73;1.23;;;38.10;42.50;;;;;;5087660;28;20505;-74
2022/07/18 09:45:47;;;;;;;2.17;1.30;;;39.00;41.20;;;;;;5124844;22;20520;-72
2022/07/18 09:48:15;;;;;;;2.03;1.50;;;39.00;41.10;;;;;;5080618;28;20476;-73
2022/07/18 09:50:44;;;;;;;9.43;1.97;;;39.20;39.70;;;;;;5082501;28;20450;-73
2022/07/18 09:53:19;;;;;;;2.70;1.60;;;39.00;40.20;;;;;;5082389;28;20447;-73
2022/07/18 09:55:48;;;;;;;1.50;1.30;;;38.70;39.20;;;;;;5079491;28;20477;-72
2022/07/18 09:58:17;;;;;;;3.57;1.60;;;39.10;38.20;;;;;;5075202;28;20469;-72
2022/07/18 10:00:45;;;;;;;6.47;2.10;;;39.00;37.80;;;;;;5078429;28;20481;-73
2022/07/18 10:03:12;;;;;;;10.20;2.23;;;38.90;38.30;;;;;;5072612;28;20513;-71
2022/07/18 10:05:40;;;;;;;2.57;1.70;;;39.50;38.00;;;;;;5076753;28;20568;-72
2022/07/18 10:08:09;;;;;;;4.10;1.43;;;40.30;37.40;;;;;;5077110;28;20454;-73
2022/07/18 10:10:39;;;;;;;2.80;1.93;;;40.00;35.90;;;;;;5075053;28;20434;-73
2022/07/18 10:13:07;;;;;;;2.23;1.73;;;39.30;37.00;;;;;;5076337;28;20533;-73
2022/07/18 10:15:41;;;;;;;3.40;1.70;;;39.70;37.10;;;;;;5079376;28;21108;-72
2022/07/18 10:18:10;;;;;;;1.70;1.57;;;39.60;35.40;;;;;;5078954;28;20469;-72
2022/07/18 10:20:52;;;;;;;2.80;1.50;;;39.90;35.80;;;;;;5079074;28;20477;-72
2022/07/18 10:23:22;;;;;;;2.50;1.57;;;40.60;35.60;;;;;;5079914;28;20451;-73
2022/07/18 10:26:08;;;;;;;2.43;2.03;;;40.80;36.00;;;;;;5077946;28;20458;-73
2022/07/18 10:28:35;;;;;;;2.87;1.77;;;40.70;35.50;;;;;;5075239;28;20434;-72
2022/07/18 10:31:15;;;;;;;3.47;1.90;;;40.90;35.00;;;;;;5072506;28;20614;-72
2022/07/18 10:33:45;;;;;;;2.50;1.60;;;40.90;34.10;;;;;;5071634;28;20457;-72
2022/07/18 10:36:14;;;;;;;2.03;1.83;;;40.20;33.80;;;;;;5076134;28;21033;-73
2022/07/18 10:39:07;;;;;;;4.43;2.80;;;40.40;33.30;;;;;;5072479;28;20447;-72
2022/07/18 10:41:54;;;;;;;3.27;1.90;;;40.30;34.20;;;;;;5076034;28;20489;-73
2022/07/18 10:44:35;;;;;;;4.70;2.03;;;41.10;33.50;;;;;;5078331;28;20457;-72
2022/07/18 10:47:08;;;;;;;4.33;1.60;;;40.50;32.30;;;;;;5078037;28;20489;-72
2022/07/18 10:50:07;;;;;;;1.80;1.50;;;40.40;33.10;;;;;;5076906;28;20553;-72
2022/07/18 10:53:01;;;;;;;2.70;1.83;;;40.90;33.40;;;;;;5078265;28;20457;-72
2022/07/18 10:55:31;;;;;;;1.73;1.47;;;41.80;34.00;;;;;;5077836;28;20427;-73
2022/07/18 10:58:19;;;;;;;2.10;1.70;;;41.40;31.70;;;;;;5075050;28;20948;-72
2022/07/18 11:00:49;;;;;;;1.70;1.43;;;40.80;31.90;;;;;;5082120;28;20577;-72
2022/07/18 11:03:19;;;;;;;6.50;1.73;;;40.90;32.30;;;;;;5076185;28;20447;-72
2022/07/18 11:05:47;;;;;;;2.07;1.87;;;41.00;32.10;;;;;;5072289;28;20559;-71
2022/07/18 11:08:22;;;;;;;3.80;1.50;;;41.50;31.20;;;;;;5076846;28;20453;-72
2022/07/18 11:11:16;;;;;;;6.17;1.90;;;41.40;32.20;;;;;;5073808;28;20433;-72
2022/07/18 11:13:50;;;;;;;3.13;1.47;;;40.30;33.80;;;;;;5074086;28;20971;-72
2022/07/18 11:16:21;;;;;;;2.27;1.60;;;40.60;32.50;;;;;;5078598;28;20485;-72
2022/07/18 11:19:16;;;;;;;10.30;2.50;;;40.70;32.50;;;;;;5081597;28;21042;-71
2022/07/18 11:21:44;;;;;;;3.43;2.20;;;41.20;32.30;;;;;;5076795;28;20872;-71
2022/07/18 11:24:12;;;;;;;2.90;1.53;;;41.20;31.90;;;;;;5081208;28;20466;-73
2022/07/18 11:26:46;;;;;;;3.80;1.33;;;41.90;32.40;;;;;;5078494;28;21008;-72
2022/07/18 11:29:15;;;;;;;2.70;1.53;;;41.40;31.80;;;;;;5080077;28;20805;-72
2022/07/18 11:31:47;;;;;;;5.53;1.93;;;41.20;31.20;;;;;;5077145;28;20816;-72
2022/07/18 11:34:14;;;;;;;4.93;1.87;;;41.00;31.80;;;;;;5080738;28;20441;-72
2022/07/18 11:36:43;;;;;;;3.10;2.00;;;40.70;31.40;;;;;;5076287;28;20508;-72
2022/07/18 11:39:12;;;;;;;1.97;1.50;;;39.50;32.10;;;;;;5077878;28;20448;-73
2022/07/18 11:41:40;;;;;;;4.17;3.50;;;40.00;31.90;;;;;;5076166;28;20478;-72
2022/07/18 11:44:17;;;;;;;2.00;1.70;;;40.90;32.10;;;;;;5075957;28;20934;-73
2022/07/18 11:46:45;;;;;;;2.73;1.63;;;41.80;31.90;;;;;;5078225;28;20466;-73
2022/07/18 11:49:12;;;;;;;4.10;1.47;;;41.20;31.60;;;;;;5075094;28;20814;-72
2022/07/18 11:51:41;;;;;;;7.37;1.90;;;40.80;32.40;;;;;;5080863;28;20447;-71
2022/07/18 11:54:09;;;;;;;3.60;1.47;;;40.80;32.40;;;;;;5081285;28;20907;-71
2022/07/18 11:56:49;;;;;;;4.00;2.10;;;40.90;31.70;;;;;;5080844;28;20462;-71
2022/07/18 11:59:17;;;;;;;2.63;1.87;;;41.50;31.40;;;;;;5079584;28;20443;-71
2022/07/18 12:01:45;;;;;;;1.60;1.50;;;41.80;31.00;;;;;;5073381;28;20488;-71
2022/07/18 12:04:20;;;;;;;2.93;1.57;;;42.20;31.80;;;;;;5075551;28;20443;-73
2022/07/18 12:07:14;;;;;;;1.80;1.60;;;42.20;31.20;;;;;;5073055;28;20472;-72
2022/07/18 12:09:41;;;;;;;1.80;1.10;;;42.30;32.30;;;;;;5082001;28;20450;-73
2022/07/18 12:12:12;;;;;;;4.13;1.70;;;42.80;31.00;;;;;;5076527;28;20443;-72
2022/07/18 12:14:40;;;;;;;1.90;1.33;;;42.90;31.40;;;;;;5078392;28;20728;-74
2022/07/18 12:17:08;;;;;;;1.70;1.20;;;43.20;30.60;;;;;;5081514;28;20454;-71
2022/07/18 12:19:36;;;;;;;1.73;1.40;;;42.70;30.60;;;;;;5083758;28;20437;-72
2022/07/18 12:22:08;;;;;;;4.40;1.40;;;42.60;31.40;;;;;;5084077;28;20482;-72
2022/07/18 12:24:37;;;;;;;2.17;1.63;;;42.80;31.90;;;;;;5085632;28;20474;-72
2022/07/18 12:27:20;;;;;;;1.53;1.40;;;43.40;30.60;;;;;;5073529;28;20484;-72
2022/07/18 12:30:04;;;;;;;1.57;1.27;;;43.40;31.10;;;;;;5078041;28;20449;-71
2022/07/18 12:32:38;;;;;;;5.60;1.87;;;43.20;31.80;;;;;;5078063;28;20453;-72
2022/07/18 12:35:07;;;;;;;2.60;1.50;;;42.80;32.10;;;;;;5079441;28;20462;-72
2022/07/18 12:37:34;;;;;;;1.50;1.10;;;42.30;31.30;;;;;;5083223;28;20465;-72
2022/07/18 12:40:04;;;;;;;5.77;2.03;;;41.40;31.80;;;;;;5074689;28;20443;-72
2022/07/18 12:42:33;;;;;;;5.70;1.97;;;42.50;31.60;;;;;;5084820;28;20474;-72
2022/07/18 12:45:01;;;;;;;3.20;1.67;;;41.90;31.10;;;;;;5083334;28;20463;-71
2022/07/18 12:47:29;;;;;;;1.93;1.50;;;42.50;30.70;;;;;;5082015;28;20971;-72
2022/07/18 12:49:56;;;;;;;2.03;1.33;;;42.90;31.30;;;;;;5082478;28;20450;-72
2022/07/18 12:52:23;;;;;;;2.13;1.77;;;42.70;30.80;;;;;;5081505;28;20485;-71
2022/07/18 12:54:50;;;;;;;2.13;1.93;;;42.30;31.10;;;;;;5085946;28;20533;-73
2022/07/18 12:57:18;;;;;;;6.10;1.30;;;42.60;30.00;;;;;;5079556;28;20506;-72